createdAt,value
2023-05-18T00:00:04.394Z,98826.92
2023-05-18T00:02:31.732Z,98825.95
2023-05-18T00:05:02.253Z,98830.29
2023-05-18T00:07:34.207Z,98825.10
2023-05-18T00:10:01.944Z,98824.07
2023-05-18T00:12:28.908Z,98824.11
2023-05-18T00:14:55.923Z,98825.70
2023-05-18T00:17:23.557Z,98828.48
2023-05-18T00:19:50.803Z,98830.32
2023-05-18T00:22:20.684Z,98827.75
2023-05-18T00:24:47.892Z,98826.73
2023-05-18T00:27:14.941Z,98834.92
2023-05-18T00:29:41.790Z,98839.41
2023-05-18T00:32:08.600Z,98846.46
2023-05-18T00:34:37.154Z,98852.26
2023-05-18T00:37:04.183Z,98857.48
2023-05-18T00:39:31.051Z,98859.67
2023-05-18T00:41:58.055Z,98862.11
2023-05-18T00:44:25.046Z,98863.50
2023-05-18T00:46:52.201Z,98865.30
2023-05-18T00:49:19.221Z,98871.17
2023-05-18T00:51:46.156Z,98874.41
2023-05-18T00:54:13.116Z,98867.87
2023-05-18T00:56:42.528Z,98869.02
2023-05-18T00:59:10.561Z,98875.58
2023-05-18T01:01:43.752Z,98870.12
2023-05-18T01:04:14.326Z,98873.91
2023-05-18T01:06:42.086Z,98873.85
2023-05-18T01:09:10.250Z,98878.66
2023-05-18T01:11:40.229Z,98878.03
2023-05-18T01:14:32.751Z,98892.65
2023-05-18T01:17:07.370Z,98890.91
2023-05-18T01:19:49.817Z,98893.36
2023-05-18T01:22:23.327Z,98897.52
2023-05-18T01:24:53.447Z,98894.16
2023-05-18T01:27:21.553Z,98896.42
2023-05-18T01:29:48.373Z,98897.75
2023-05-18T01:32:21.868Z,98898.74
2023-05-18T01:34:48.904Z,98905.30
2023-05-18T01:37:16.243Z,98910.23
2023-05-18T01:39:43.152Z,98918.18
2023-05-18T01:42:15.944Z,98915.84
2023-05-18T01:44:47.834Z,98914.06
2023-05-18T01:47:17.962Z,98912.44
2023-05-18T01:49:57.007Z,98911.45
2023-05-18T01:52:33.632Z,98913.90
2023-05-18T01:55:02.646Z,98913.73
2023-05-18T01:57:30.005Z,98917.77
2023-05-18T02:00:00.065Z,98918.20
2023-05-18T02:02:29.324Z,98908.56
2023-05-18T02:04:56.535Z,98914.00
2023-05-18T02:07:23.356Z,98911.77
2023-05-18T02:09:50.192Z,98916.50
2023-05-18T02:12:17.059Z,98923.67
2023-05-18T02:14:43.962Z,98936.63
2023-05-18T02:17:11.702Z,98935.47
2023-05-18T02:19:38.800Z,98931.38
2023-05-18T02:22:07.111Z,98936.21
2023-05-18T02:24:34.535Z,98939.29
2023-05-18T02:27:01.527Z,98934.68
2023-05-18T02:29:28.457Z,98936.81
2023-05-18T02:31:55.993Z,98938.06
2023-05-18T02:34:24.791Z,98940.96
2023-05-18T02:36:51.860Z,98935.70
2023-05-18T02:39:18.832Z,98944.20
2023-05-18T02:41:45.800Z,98936.43
2023-05-18T02:44:13.028Z,98936.63
2023-05-18T02:46:39.944Z,98938.75
2023-05-18T02:49:07.032Z,98936.99
2023-05-18T02:51:34.058Z,98942.09
2023-05-18T02:54:01.911Z,98945.39
2023-05-18T02:56:32.928Z,98952.52
2023-05-18T02:59:11.684Z,98959.92
2023-05-18T03:01:41.411Z,98959.43
2023-05-18T03:04:08.546Z,98961.51
2023-05-18T03:06:38.426Z,98967.10
2023-05-18T03:09:05.314Z,98959.46
2023-05-18T03:11:36.044Z,98955.88
2023-05-18T03:14:03.483Z,98964.96
2023-05-18T03:16:30.520Z,98961.62
2023-05-18T03:19:02.278Z,98962.14
2023-05-18T03:21:36.052Z,98966.41
2023-05-18T03:24:03.435Z,98959.61
2023-05-18T03:26:33.700Z,98959.60
2023-05-18T03:29:02.132Z,98961.84
2023-05-18T03:31:29.153Z,98966.21
2023-05-18T03:33:57.268Z,98969.61
2023-05-18T03:36:26.222Z,98978.92
2023-05-18T03:38:53.047Z,98986.14
2023-05-18T03:41:20.190Z,98991.42
2023-05-18T03:43:47.119Z,98994.44
2023-05-18T03:46:14.107Z,99001.64
2023-05-18T03:48:40.869Z,99003.63
2023-05-18T03:51:07.849Z,99005.77
2023-05-18T03:53:36.344Z,99007.18
2023-05-18T03:56:03.204Z,99010.48
2023-05-18T03:58:30.239Z,99011.86
2023-05-18T04:00:58.020Z,99010.13
2023-05-18T04:03:27.270Z,99015.14
2023-05-18T04:05:55.931Z,99015.58
2023-05-18T04:08:25.717Z,99019.82
2023-05-18T04:10:52.931Z,99021.05
2023-05-18T04:13:19.962Z,99023.92
2023-05-18T04:15:47.728Z,99022.89
2023-05-18T04:18:14.773Z,99032.46
2023-05-18T04:20:42.759Z,99030.70
2023-05-18T04:23:10.196Z,99032.42
2023-05-18T04:25:39.494Z,99031.36
2023-05-18T04:28:14.989Z,99039.81
2023-05-18T04:30:46.450Z,99044.11
2023-05-18T04:33:20.598Z,99043.61
2023-05-18T04:35:47.885Z,99044.46
2023-05-18T04:38:16.570Z,99046.96
2023-05-18T04:40:44.057Z,99046.07
2023-05-18T04:43:13.354Z,99056.16
2023-05-18T04:45:40.342Z,99053.66
2023-05-18T04:48:07.782Z,99051.84
2023-05-18T04:50:35.993Z,99060.92
2023-05-18T04:53:08.025Z,99062.88
2023-05-18T04:55:35.650Z,99064.61
2023-05-18T04:58:06.235Z,99068.06
2023-05-18T05:00:33.805Z,99071.91
2023-05-18T05:03:00.830Z,99072.27
2023-05-18T05:05:27.905Z,99077.55
2023-05-18T05:07:55.883Z,99081.19
2023-05-18T05:10:23.220Z,99082.87
2023-05-18T05:12:50.695Z,99082.94
2023-05-18T05:15:18.333Z,99087.41
2023-05-18T05:17:49.376Z,99092.03
2023-05-18T05:20:17.246Z,99094.62
2023-05-18T05:22:44.299Z,99091.70
2023-05-18T05:25:13.164Z,99096.13
2023-05-18T05:27:40.217Z,99102.27
2023-05-18T05:30:07.989Z,99105.27
2023-05-18T05:32:36.758Z,99107.08
2023-05-18T05:35:05.533Z,99107.13
2023-05-18T05:37:32.625Z,99108.57
2023-05-18T05:39:59.759Z,99104.65
2023-05-18T05:42:28.056Z,99100.35
2023-05-18T05:44:54.928Z,99105.41
2023-05-18T05:47:23.331Z,99108.93
2023-05-18T05:49:50.951Z,99104.39
2023-05-18T05:52:18.178Z,99107.41
2023-05-18T05:54:45.126Z,99108.10
2023-05-18T05:57:11.948Z,99097.09
2023-05-18T05:59:38.772Z,99101.85
2023-05-18T06:02:06.650Z,99100.10
2023-05-18T06:04:33.619Z,99094.54
2023-05-18T06:07:02.207Z,99105.42
2023-05-18T06:09:29.021Z,99107.06
2023-05-18T06:11:56.329Z,99112.05
2023-05-18T06:14:27.062Z,99120.36
2023-05-18T06:16:55.846Z,99128.11
2023-05-18T06:19:22.968Z,99126.04
2023-05-18T06:21:51.059Z,99129.53
2023-05-18T06:26:00.937Z,99138.48
2023-05-18T06:28:47.825Z,99144.58
2023-05-18T06:31:24.216Z,99150.81
2023-05-18T06:33:56.266Z,99151.64
2023-05-18T06:36:23.669Z,99157.54
2023-05-18T06:38:50.521Z,99150.90
2023-05-18T06:41:17.602Z,99154.21
2023-05-18T06:43:44.579Z,99153.96
2023-05-18T06:46:31.836Z,99156.61
2023-05-18T06:49:01.552Z,99161.23
2023-05-18T06:51:28.540Z,99162.77
2023-05-18T06:53:56.475Z,99163.06
2023-05-18T06:56:23.601Z,99163.36
2023-05-18T06:58:51.883Z,99163.34
2023-05-18T07:01:19.496Z,99166.50
2023-05-18T07:03:46.662Z,99169.55
2023-05-18T07:06:13.654Z,99173.23
2023-05-18T07:08:40.813Z,99180.70
2023-05-18T07:11:07.721Z,99184.48
2023-05-18T07:13:35.054Z,99192.10
2023-05-18T07:16:02.173Z,99191.86
2023-05-18T07:18:29.057Z,99193.35
2023-05-18T07:20:55.871Z,99194.48
2023-05-18T07:23:23.470Z,99199.96
2023-05-18T07:25:50.479Z,99202.50
2023-05-18T07:28:17.550Z,99204.09
2023-05-18T07:30:44.356Z,99209.68
2023-05-18T07:33:11.230Z,99208.63
2023-05-18T07:35:38.168Z,99213.86
2023-05-18T07:38:05.029Z,99215.46
2023-05-18T07:40:32.103Z,99220.17
2023-05-18T07:43:07.111Z,99218.58
2023-05-18T07:45:34.464Z,99222.30
2023-05-18T07:48:01.867Z,99221.73
2023-05-18T07:50:29.570Z,99220.61
2023-05-18T07:52:56.594Z,99222.95
2023-05-18T07:55:23.649Z,99224.08
2023-05-18T07:57:50.955Z,99225.60
2023-05-18T08:03:20.282Z,99224.40
2023-05-18T08:05:47.324Z,99227.94
2023-05-18T08:08:15.194Z,99226.78
2023-05-18T08:10:42.370Z,99229.66
2023-05-18T08:13:09.378Z,99231.96
2023-05-18T08:15:37.370Z,99233.36
2023-05-18T08:18:04.434Z,99237.53
2023-05-18T08:20:31.282Z,99247.19
2023-05-18T08:22:58.102Z,99247.43
2023-05-18T08:25:24.991Z,99246.71
2023-05-18T08:27:51.796Z,99247.61
2023-05-18T08:30:21.483Z,99245.91
2023-05-18T08:32:48.890Z,99244.52
2023-05-18T08:35:15.821Z,99256.00
2023-05-18T08:37:42.571Z,99256.13
2023-05-18T08:40:11.492Z,99256.40
2023-05-18T08:42:49.502Z,99250.90
2023-05-18T08:45:22.616Z,99248.58
2023-05-18T08:47:52.772Z,99246.61
2023-05-18T08:50:28.149Z,99249.49
2023-05-18T08:52:55.704Z,99252.55
2023-05-18T08:55:23.567Z,99258.77
2023-05-18T08:57:56.576Z,99260.30
2023-05-18T09:00:28.565Z,99256.73
2023-05-18T09:02:55.913Z,99258.95
2023-05-18T09:05:23.263Z,99261.02
2023-05-18T09:07:51.049Z,99256.31
2023-05-18T09:10:18.164Z,99249.00
2023-05-18T09:12:47.905Z,99247.83
2023-05-18T09:15:15.869Z,99243.73
2023-05-18T09:17:42.882Z,99240.59
2023-05-18T09:20:10.333Z,99236.53
2023-05-18T09:22:37.221Z,99240.77
2023-05-18T09:25:04.670Z,99243.93
2023-05-18T09:27:31.647Z,99244.48
2023-05-18T09:29:58.794Z,99248.02
2023-05-18T09:32:25.826Z,99247.88
2023-05-18T09:34:53.329Z,99246.96
2023-05-18T09:37:21.671Z,99249.66
2023-05-18T09:39:59.058Z,99251.40
2023-05-18T09:42:39.188Z,99249.75
2023-05-18T09:45:19.842Z,99251.23
2023-05-18T09:47:46.993Z,99252.86
2023-05-18T09:50:14.303Z,99248.59
2023-05-18T09:52:45.006Z,99247.80
2023-05-18T09:55:12.083Z,99248.02
2023-05-18T09:57:46.513Z,99243.70
2023-05-18T10:00:15.657Z,99246.90
2023-05-18T10:02:46.535Z,99250.50
2023-05-18T10:05:36.090Z,99251.55
2023-05-18T10:08:03.178Z,99251.91
2023-05-18T10:10:30.237Z,99253.35
2023-05-18T10:12:58.535Z,99254.52
2023-05-18T10:15:25.677Z,99258.03
2023-05-18T10:17:55.892Z,99260.29
2023-05-18T10:20:24.486Z,99261.02
2023-05-18T10:22:51.352Z,99255.69
2023-05-18T10:25:23.088Z,99256.71
2023-05-18T10:27:50.815Z,99260.42
2023-05-18T10:30:18.071Z,99258.63
2023-05-18T10:32:45.669Z,99258.02
2023-05-18T10:35:12.672Z,99258.69
2023-05-18T10:37:42.950Z,99265.17
2023-05-18T10:40:10.404Z,99260.10
2023-05-18T10:42:37.481Z,99264.76
2023-05-18T10:45:04.930Z,99262.17
2023-05-18T10:47:32.785Z,99264.52
2023-05-18T10:50:00.984Z,99267.55
2023-05-18T10:52:31.813Z,99270.06
2023-05-18T10:55:00.780Z,99269.54
2023-05-18T10:57:34.711Z,99269.41
2023-05-18T11:00:03.468Z,99271.35
2023-05-18T11:02:30.280Z,99272.08
2023-05-18T11:04:57.382Z,99266.48
2023-05-18T11:07:25.366Z,99264.93
2023-05-18T11:09:52.539Z,99269.56
2023-05-18T11:12:19.359Z,99269.70
2023-05-18T11:14:50.629Z,99275.35
2023-05-18T11:17:22.005Z,99276.67
2023-05-18T11:20:11.898Z,99272.29
2023-05-18T11:22:49.171Z,99272.21
2023-05-18T11:25:39.548Z,99274.68
2023-05-18T11:28:08.401Z,99280.78
2023-05-18T11:30:40.973Z,99285.77
2023-05-18T11:33:11.787Z,99287.04
2023-05-18T11:36:15.481Z,99286.51
2023-05-18T11:38:49.493Z,99291.98
2023-05-18T11:41:29.884Z,99298.63
2023-05-18T11:44:15.248Z,99298.77
2023-05-18T11:46:56.174Z,99302.95
2023-05-18T11:49:25.909Z,99304.27
2023-05-18T11:52:08.502Z,99314.04
2023-05-18T11:54:39.897Z,99315.72
2023-05-18T11:57:07.223Z,99318.39
2023-05-18T11:59:37.338Z,99313.95
2023-05-18T12:02:04.335Z,99324.36
2023-05-18T12:04:32.663Z,99315.13
2023-05-18T12:06:59.953Z,99317.85
2023-05-18T12:09:27.196Z,99324.16
2023-05-18T12:11:55.154Z,99315.95
2023-05-18T12:14:22.028Z,99312.06
2023-05-18T12:16:51.988Z,99311.48
2023-05-18T12:19:19.796Z,99315.81
2023-05-18T12:21:47.206Z,99312.27
2023-05-18T12:24:14.284Z,99312.59
2023-05-18T12:26:41.731Z,99314.44
2023-05-18T12:29:10.404Z,99317.63
2023-05-18T12:31:40.580Z,99321.16
2023-05-18T12:34:09.471Z,99315.73
2023-05-18T12:36:43.540Z,99322.65
2023-05-18T12:39:11.177Z,99322.60
2023-05-18T12:41:37.985Z,99328.83
2023-05-18T12:44:05.421Z,99328.06
2023-05-18T12:46:32.794Z,99329.63
2023-05-18T12:49:01.631Z,99336.60
2023-05-18T12:51:38.842Z,99340.30
2023-05-18T12:54:06.460Z,99346.06
2023-05-18T12:57:02.584Z,99343.83
2023-05-18T12:59:29.983Z,99345.52
2023-05-18T13:01:58.790Z,99345.36
2023-05-18T13:04:36.343Z,99347.38
2023-05-18T13:07:03.524Z,99347.25
2023-05-18T13:09:30.822Z,99350.79
2023-05-18T13:12:07.407Z,99356.25
2023-05-18T13:14:38.253Z,99355.92
2023-05-18T13:17:06.050Z,99357.02
2023-05-18T13:19:35.102Z,99358.61
2023-05-18T13:22:02.190Z,99356.61
2023-05-18T13:24:28.953Z,99360.52
2023-05-18T13:26:55.888Z,99357.30
2023-05-18T13:29:22.761Z,99362.61
2023-05-18T13:31:49.729Z,99367.98
2023-05-18T13:34:16.820Z,99362.84
2023-05-18T13:36:43.737Z,99359.59
2023-05-18T13:39:10.986Z,99363.06
2023-05-18T13:41:37.826Z,99364.26
2023-05-18T13:44:04.706Z,99370.73
2023-05-18T13:46:31.876Z,99371.85
2023-05-18T13:48:59.008Z,99371.01
2023-05-18T13:51:25.897Z,99375.47
2023-05-18T13:53:52.771Z,99371.29
2023-05-18T13:56:19.544Z,99375.48
2023-05-18T13:58:47.519Z,99375.46
2023-05-18T14:01:14.448Z,99379.96
2023-05-18T14:03:41.385Z,99381.89
2023-05-18T14:06:08.333Z,99383.37
2023-05-18T14:08:35.086Z,99382.86
2023-05-18T14:11:01.980Z,99384.79
2023-05-18T14:13:29.394Z,99384.38
2023-05-18T14:15:56.408Z,99385.71
2023-05-18T14:18:23.233Z,99389.95
2023-05-18T14:20:50.213Z,99386.14
2023-05-18T14:23:17.836Z,99389.30
2023-05-18T14:25:46.034Z,99385.66
2023-05-18T14:28:13.525Z,99391.08
2023-05-18T14:30:40.627Z,99395.42
2023-05-18T14:33:07.546Z,99397.36
2023-05-18T14:35:34.633Z,99398.08
2023-05-18T14:38:02.903Z,99395.77
2023-05-18T14:40:30.168Z,99391.46
2023-05-18T14:42:57.300Z,99391.08
2023-05-18T14:45:24.221Z,99387.56
2023-05-18T14:47:51.651Z,99394.25
2023-05-18T14:50:18.674Z,99391.75
2023-05-18T14:52:45.603Z,99401.85
2023-05-18T14:55:12.435Z,99393.44
2023-05-18T14:57:39.292Z,99391.99
2023-05-18T15:00:07.065Z,99393.11
2023-05-18T15:02:34.198Z,99388.98
2023-05-18T15:05:01.091Z,99384.87
2023-05-18T15:07:27.926Z,99386.70
2023-05-18T15:09:55.471Z,99392.84
2023-05-18T15:12:23.405Z,99391.52
2023-05-18T15:14:50.661Z,99392.45
2023-05-18T15:17:18.130Z,99390.25
2023-05-18T15:19:45.204Z,99400.09
2023-05-18T15:22:12.059Z,99400.70
2023-05-18T15:24:38.846Z,99401.63
2023-05-18T15:27:06.437Z,99398.89
2023-05-18T15:29:33.395Z,99398.39
2023-05-18T15:32:00.364Z,99400.12
2023-05-18T15:34:27.370Z,99398.02
2023-05-18T15:36:54.257Z,99395.07
2023-05-18T15:39:21.154Z,99400.50
2023-05-18T15:41:48.053Z,99397.92
2023-05-18T15:44:14.970Z,99399.73
2023-05-18T15:46:41.690Z,99389.75
2023-05-18T15:49:08.611Z,99399.85
2023-05-18T15:51:35.451Z,99399.83
2023-05-18T15:54:02.265Z,99407.59
2023-05-18T15:56:29.035Z,99402.60
2023-05-18T16:02:19.901Z,99421.58
2023-05-18T16:04:47.221Z,99437.23
2023-05-18T16:07:15.274Z,99434.27
2023-05-18T16:09:42.659Z,99433.05
2023-05-18T16:12:09.515Z,99440.55
2023-05-18T16:14:36.370Z,99439.18
2023-05-18T16:17:03.337Z,99444.83
2023-05-18T16:19:30.634Z,99447.33
2023-05-18T16:21:57.610Z,99446.86
2023-05-18T16:24:24.848Z,99447.22
2023-05-18T16:26:51.686Z,99449.52
2023-05-18T16:29:18.521Z,99449.58
2023-05-18T16:31:45.688Z,99455.90
2023-05-18T16:34:12.497Z,99454.67
2023-05-18T16:36:39.301Z,99459.08
2023-05-18T16:39:07.900Z,99453.89
2023-05-18T16:41:34.750Z,99460.71
2023-05-18T16:44:01.631Z,99467.31
2023-05-18T16:46:28.708Z,99472.38
2023-05-18T16:48:55.930Z,99480.64
2023-05-18T16:51:22.795Z,99487.14
2023-05-18T16:53:52.437Z,99484.41
2023-05-18T16:56:22.182Z,99477.84
2023-05-18T16:58:53.545Z,99472.66
2023-05-18T17:01:28.218Z,99475.29
2023-05-18T17:03:56.289Z,99473.92
2023-05-18T17:06:23.801Z,99475.66
2023-05-18T17:08:58.432Z,99480.20
2023-05-18T17:11:29.243Z,99483.20
2023-05-18T17:13:57.751Z,99492.13
2023-05-18T17:16:26.618Z,99494.59
